St Paul Downtown Holman Field
KSTP : now visible

Airfield :











YOU CAN JOIN US ON...

 
LOGIN :

Register | Disclaimer

   EN    FR    IT 

 









Legend :    VFR   Marginal VFR   IFR   Intensive IFR   Very Intensive IFR
Visi :
Ceiling :
>= 8 km
>= 3000ft
5 to 8 km
1000 to 3000 ft
1500m to 5 km
500 to 1000 ft
800 to 1500m
200 to 500 ft
< 800m
< 200 ft
Symbols :   Thunderstorms  Fog  Heavy snow  Heavy precipitations  Wind > 20 kt







- Airport Elevation : 705 ft
- IATA code : STP


KSTP - St Paul Downtown Holman Field

CURRENT METAR :
  • 192253Z 01015G23KT 10SM BKN023 OVC028 04/01 A2988 RMK AO2 PK WND 36029/2155 RAE2155 SLP122 P0000 T00440006

EXPIRED METARs :
  • 192153Z 01015G31KT 10SM -RA OVC021 04/01 A2985 RMK AO2 PK WND 02033/2056 SLP112 P0000 T00440006
  • 192053Z 01019G30KT 10SM -RA BKN019 OVC050 04/01 A2982 RMK AO2 PK WND 02033/2026 SLP099 P0000 60004 T00440011 51022
  • 192022Z 02017G32KT 10SM -RA BKN019 OVC055 05/02 A2980 RMK AO2 PK WND 01032/2015 P0000 T00500017
  • 192000Z 01020G30KT 10SM -RA SCT018 BKN041 OVC050 04/02 A2980 RMK AO2 PK WND 01030/2000 P0000 T00440017
  • 191953Z 01015G33KT 10SM -RA BKN013 OVC024 04/02 A2980 RMK AO2 PK WND 03034/1907 SLP094 P0000 T00440017

Expired Forecast.
KZMP FIR / North America



MET'MAP, your aeronautical weather chart ! - Copyright ORBIFLY December 2007 - Disclaimer

ORBIFLY MET'MAP TEAM :

Programming & Development : Alexandra Zaïnal
Concept & Development : Baudouin d'Aumeries
Co-Development & Prog : Marc-Olivier Méhu
Technical & hardware support : Manuel Goepfert

Contact : metmap@orbifly.com




SOURCES & CREDITS :

   NOAA       Earth
Advisory